Aérodrome :
LOGIN :

S'inscrire | Disclaimer

   EN    FR    IT 

 










Légende :    VFR   VFR Marginal   IFR   IFR Intensif   IFR Très Intensif
Visi : 
Plafond : 
>= 8 km
>= 3000ft
5 à 8 km
1000 à 3000 ft
1500m à 5 km
500 à 1000 ft
800 à 1500m
200 à 500 ft
< 800m
< 200 ft
Symboles :   Orages  Brouillard  Fortes neiges  Fortes précipitations  Vent > 20 kt
SIGMETs :   Divers  Orages  Givrage  Turbulence  Onde Orograph.  Cendres Volcan.






- Altitude de l'aérodrome : 265 ft


LFMC - Le Luc

DERNIER METAR :
  • 300000Z AUTO 29015KT 9999 ////// 21/12 Q1010

METARs EXPIRÉS :
  • 292330Z AUTO 30006KT 260V340 9999 ////// 20/12 Q1010
  • 292300Z AUTO 29005KT 250V330 9999 ////// 21/12 Q1011
  • 292230Z AUTO 28007KT 9999 ////// 21/12 Q1011
  • 292200Z AUTO 30008KT 9999 ////// 21/12 Q1011
  • 292130Z AUTO 30011KT 9999 ////// 22/12 Q1011
  • 292100Z AUTO 30012KT 9999 ////// 22/11 Q1012
  • 292030Z AUTO 30015KT 9999 ////// 23/11 Q1011
  • 292000Z AUTO 29017KT 9999 ////// 23/10 Q1011
  • 291930Z AUTO 31016KT 9999 ////// 24/08 Q1011

TAF N/A



MET'MAP, la Météo Aéronautique d'un coup d'oeil ! - Copyright ORBIFLY Décembre 2007 - Disclaimer

ORBIFLY MET'MAP TEAM :

Programmation & Développement : Alexandra Zaïnal
Sur une idée originale de : Baudouin d'Aumeries
Soutien technique & logistique : Manuel Goepfert
Assistance : Marc-Olivier Méhu




SOURCES & CREDITS :

   NOAA